Minot Air Force Base Minot US
ICAO: KMIB
IATA: MIB
Category: Medium
Scheduled Services: No

Elevation: 1667 ft
TransAlt. 18000 ft.

Airport Communications:
APP:119.6
ATIS:27.88
CLNC DEL:32.62
DEP:119.6
GND:134
PMSV METRO:34.25
COMD POST:32.1
PTD:37.22
TWR:120.65

KMIB Zoom In..

Runways:

(A) RW 11 length 13197 ft width 300 ft
ILS 109.90 / hdg 115

(B) RW 29 length 13197 ft width 300 ft
ILS 109.90 / hdg 295

Location; KMIB
Day. 19 / Time. 20.56 Zulu
* Altimeter: 29.81
* Temperature: 30° c. 86°f.
* Wind from: 360° Speed 06 kn with Gusts up to 15 kn.
Dewpoint: 13° c.
Visibility: 10 Statute Miles.
Clouds: Clear (automated report).

KMIB 192056Z AUTO 36006G15KT 10SM CLR 30/13 A2981 RMK AO2 SLP092 T02950133 58005


Wind From 360°
Speed 06 kn.

 
 
jpsmedia.com for Web Design worldairports.se 2018   terms of use